Lublin, WI (54447)

1:53 AM CDT on October 23, 2014 (GMT -0500)
N Gilman Dr | Change Station
CLOSE
Current Station
Personal Weather Station
Location: Gilman, WI
Elevation: 1237 ft
Nearby Weather Stations

Elev 1237 ft 45.17 °N, 90.82 °W | Updated 2 minutes ago

Overcast
Overcast
45.3 °F
Feels Like 42 °F
N
6.0
Wind Variable Wind from SSE
Gusts 8.0 mph

Today
High -- | Low -- °F
--% Chance of Precip.
Yesterday
High -- | Low -- °F
Precip. -- in
7:29 AM 6:04 PM
Waning Crescent, 0% visible
Pressure 30.13 in
Visibility 10.0 miles
Clouds Scattered Clouds 3300 ft
Mostly Cloudy 3900 ft
Windchill 42 °F
Dew Point 37 °F
Humidity 73%
Rainfall 0.06 in
Snow Depth Not available.
UV 0 out of 12
Pollen 1.30 out of 12
Air Quality Not available.
Flu Activity Sporadic
METAR KMDZ 230635Z AUTO 16007KT 10SM SCT033 BKN039 06/02 A3013 RMK AO2 T00600021

More Conditions Fewer Conditions

Pressure 30.13 in
Visibility 10.0 miles
Clouds Scattered Clouds 3300 ft
Mostly Cloudy 3900 ft
Windchill 42 °F
Dew Point 37 °F
Humidity 73%
Rainfall 0.06 in
Snow Depth Not available.
UV 0 out of 12
Pollen 1.30 out of 12
Air Quality Not available.
Flu Activity Sporadic
METAR KMDZ 230635Z AUTO 16007KT 10SM SCT033 BKN039 06/02 A3013 RMK AO2 T00600021

More Conditions Fewer Conditions

Nowcast | as of 12:12 am CDT on October 23, 2014

Scattered showers and isolated thunderstorms can be expected over the next few hours but the rain should not last too long. A few more light showers are possible before daybreak...before the rain threat ends later today.

×

10-Day Weather Forecast

Almanac

Astronomy

Oct. 23, 2014 Rise Set
Actual Time 7:29 AM CDT 6:04 PM CDT
Civil Twilight 6:59 AM CDT 6:34 PM CDT
Nautical Twilight 6:24 AM CDT 7:08 PM CDT
Astronomical Twilight 5:50 AM CDT 7:42 PM CDT
Moon 7:08 AM CDT 6:05 PM CDT
Length of Visible Light 11h 35m
Length of Day
10h 35m
Tomorrow will be 2m 57s shorter.
Waning Crescent, 0% of the Moon is Illuminated
Today
Waning Crescent
Oct 23
New
Oct 30
First Quarter
Nov 6
Full
Nov 14
Last Quarter

Today's Extremes

State Highs State Lows

Community

WunderPhotos

Upload Photos

1,764,194 photos uploaded!

Nearby

Snow Depth

Station Depth Elevation
No new snow has been reported.

Earthquake Activity

City Distance Mag. Time & Date
No recent earthquake activity has been reported nearby.
Minimum magnitude displayed is 2.5.

Coastal Water Temperatures

Place Temperature
No Stations Reporting

Nearby Weather Stations